sensor_id;sensor_type;location;lat;lon;timestamp;temperature;humidity
10296;DHT22;5193;51.032;6.356;2022-07-22T00:01:13;16.60;99.90
10296;DHT22;5193;51.032;6.356;2022-07-22T00:03:38;16.60;99.90
10296;DHT22;5193;51.032;6.356;2022-07-22T00:06:04;16.70;99.90
10296;DHT22;5193;51.032;6.356;2022-07-22T00:08:30;16.60;99.90
10296;DHT22;5193;51.032;6.356;2022-07-22T00:10:55;16.70;99.90
10296;DHT22;5193;51.032;6.356;2022-07-22T00:13:21;16.70;99.90
10296;DHT22;5193;51.032;6.356;2022-07-22T00:15:46;16.70;99.90
10296;DHT22;5193;51.032;6.356;2022-07-22T00:18:12;16.70;99.90
10296;DHT22;5193;51.032;6.356;2022-07-22T00:20:38;16.70;99.90
10296;DHT22;5193;51.032;6.356;2022-07-22T00:23:03;16.70;99.90
10296;DHT22;5193;51.032;6.356;2022-07-22T00:25:29;16.70;99.90
10296;DHT22;5193;51.032;6.356;2022-07-22T00:27:55;16.70;99.90
10296;DHT22;5193;51.032;6.356;2022-07-22T00:30:21;16.70;99.90
10296;DHT22;5193;51.032;6.356;2022-07-22T00:32:46;16.70;99.90
10296;DHT22;5193;51.032;6.356;2022-07-22T00:35:12;16.70;99.90
10296;DHT22;5193;51.032;6.356;2022-07-22T00:37:37;16.60;99.90
10296;DHT22;5193;51.032;6.356;2022-07-22T00:40:03;16.60;99.90
10296;DHT22;5193;51.032;6.356;2022-07-22T00:42:29;16.60;99.90
10296;DHT22;5193;51.032;6.356;2022-07-22T00:44:55;16.50;99.90
10296;DHT22;5193;51.032;6.356;2022-07-22T00:47:20;16.50;99.90
10296;DHT22;5193;51.032;6.356;2022-07-22T00:49:46;16.50;99.90
10296;DHT22;5193;51.032;6.356;2022-07-22T00:52:12;16.50;99.90
10296;DHT22;5193;51.032;6.356;2022-07-22T00:54:38;16.50;99.90
10296;DHT22;5193;51.032;6.356;2022-07-22T00:57:04;16.50;99.90
10296;DHT22;5193;51.032;6.356;2022-07-22T00:59:30;16.40;99.90
10296;DHT22;5193;51.032;6.356;2022-07-22T01:01:55;16.40;99.90
10296;DHT22;5193;51.032;6.356;2022-07-22T01:04:21;16.40;99.90
10296;DHT22;5193;51.032;6.356;2022-07-22T01:06:47;16.40;99.90
10296;DHT22;5193;51.032;6.356;2022-07-22T01:09:13;16.40;99.90
10296;DHT22;5193;51.032;6.356;2022-07-22T01:11:40;16.40;99.90
10296;DHT22;5193;51.032;6.356;2022-07-22T01:14:05;16.40;99.90
10296;DHT22;5193;51.032;6.356;2022-07-22T01:16:31;16.40;99.90
10296;DHT22;5193;51.032;6.356;2022-07-22T01:18:57;16.40;99.90
10296;DHT22;5193;51.032;6.356;2022-07-22T01:21:23;16.40;99.90
10296;DHT22;5193;51.032;6.356;2022-07-22T01:23:48;16.40;99.90
10296;DHT22;5193;51.032;6.356;2022-07-22T01:26:15;16.30;99.90
10296;DHT22;5193;51.032;6.356;2022-07-22T01:28:41;16.30;99.90
10296;DHT22;5193;51.032;6.356;2022-07-22T01:31:07;16.30;99.90
10296;DHT22;5193;51.032;6.356;2022-07-22T01:33:33;16.30;99.90
10296;DHT22;5193;51.032;6.356;2022-07-22T01:35:59;16.30;99.90
10296;DHT22;5193;51.032;6.356;2022-07-22T01:38:24;16.30;99.90
10296;DHT22;5193;51.032;6.356;2022-07-22T01:40:50;16.30;99.90
10296;DHT22;5193;51.032;6.356;2022-07-22T01:43:16;16.40;99.90
10296;DHT22;5193;51.032;6.356;2022-07-22T01:45:48;16.30;99.90
10296;DHT22;5193;51.032;6.356;2022-07-22T01:48:14;16.30;99.90
10296;DHT22;5193;51.032;6.356;2022-07-22T01:50:41;16.20;99.90
10296;DHT22;5193;51.032;6.356;2022-07-22T01:53:07;16.30;99.90
10296;DHT22;5193;51.032;6.356;2022-07-22T01:55:33;16.30;99.90
10296;DHT22;5193;51.032;6.356;2022-07-22T01:57:58;16.30;99.90
10296;DHT22;5193;51.032;6.356;2022-07-22T02:00:24;16.30;99.90
10296;DHT22;5193;51.032;6.356;2022-07-22T02:02:50;16.30;99.90
10296;DHT22;5193;51.032;6.356;2022-07-22T02:05:15;16.20;99.90
10296;DHT22;5193;51.032;6.356;2022-07-22T02:07:41;16.30;99.90
10296;DHT22;5193;51.032;6.356;2022-07-22T02:10:07;16.20;99.90
10296;DHT22;5193;51.032;6.356;2022-07-22T02:12:33;16.20;99.90
10296;DHT22;5193;51.032;6.356;2022-07-22T02:14:59;16.20;99.90
10296;DHT22;5193;51.032;6.356;2022-07-22T02:17:25;16.20;99.90
10296;DHT22;5193;51.032;6.356;2022-07-22T02:19:50;16.20;99.90
10296;DHT22;5193;51.032;6.356;2022-07-22T02:22:16;16.10;99.90
10296;DHT22;5193;51.032;6.356;2022-07-22T02:24:42;16.20;99.90
10296;DHT22;5193;51.032;6.356;2022-07-22T02:27:07;16.20;99.90
10296;DHT22;5193;51.032;6.356;2022-07-22T02:29:33;16.10;99.90
10296;DHT22;5193;51.032;6.356;2022-07-22T02:31:59;16.10;99.90
10296;DHT22;5193;51.032;6.356;2022-07-22T02:34:25;16.10;99.90
10296;DHT22;5193;51.032;6.356;2022-07-22T02:36:51;16.10;99.90
10296;DHT22;5193;51.032;6.356;2022-07-22T02:39:17;16.10;99.90
10296;DHT22;5193;51.032;6.356;2022-07-22T02:41:43;16.10;99.90
10296;DHT22;5193;51.032;6.356;2022-07-22T02:44:09;16.10;99.90
10296;DHT22;5193;51.032;6.356;2022-07-22T02:46:34;16.10;99.90
10296;DHT22;5193;51.032;6.356;2022-07-22T02:49:00;16.10;99.90
10296;DHT22;5193;51.032;6.356;2022-07-22T02:51:26;16.10;99.90
10296;DHT22;5193;51.032;6.356;2022-07-22T02:53:52;16.10;99.90
10296;DHT22;5193;51.032;6.356;2022-07-22T02:56:17;16.00;99.90
10296;DHT22;5193;51.032;6.356;2022-07-22T02:58:45;16.10;99.90
10296;DHT22;5193;51.032;6.356;2022-07-22T03:01:12;16.10;99.90
10296;DHT22;5193;51.032;6.356;2022-07-22T03:03:38;16.10;99.90
10296;DHT22;5193;51.032;6.356;2022-07-22T03:06:03;16.00;99.90
10296;DHT22;5193;51.032;6.356;2022-07-22T03:08:29;16.00;99.90
10296;DHT22;5193;51.032;6.356;2022-07-22T03:10:55;16.00;99.90
10296;DHT22;5193;51.032;6.356;2022-07-22T03:13:20;16.00;99.90
10296;DHT22;5193;51.032;6.356;2022-07-22T03:15:46;16.00;99.90
10296;DHT22;5193;51.032;6.356;2022-07-22T03:18:11;16.00;99.90
10296;DHT22;5193;51.032;6.356;2022-07-22T03:20:37;16.00;99.90
10296;DHT22;5193;51.032;6.356;2022-07-22T03:23:03;16.00;99.90
10296;DHT22;5193;51.032;6.356;2022-07-22T03:25:28;16.00;99.90
10296;DHT22;5193;51.032;6.356;2022-07-22T03:27:56;16.00;99.90
10296;DHT22;5193;51.032;6.356;2022-07-22T03:30:22;16.00;99.90
10296;DHT22;5193;51.032;6.356;2022-07-22T03:32:48;16.00;99.90
10296;DHT22;5193;51.032;6.356;2022-07-22T03:35:14;16.00;99.90
10296;DHT22;5193;51.032;6.356;2022-07-22T03:37:40;16.00;99.90
10296;DHT22;5193;51.032;6.356;2022-07-22T03:40:06;16.00;99.90
10296;DHT22;5193;51.032;6.356;2022-07-22T03:42:33;16.00;99.90
10296;DHT22;5193;51.032;6.356;2022-07-22T03:44:58;16.00;99.90
10296;DHT22;5193;51.032;6.356;2022-07-22T03:47:24;16.00;99.90
10296;DHT22;5193;51.032;6.356;2022-07-22T03:49:50;16.00;99.90
10296;DHT22;5193;51.032;6.356;2022-07-22T03:52:16;16.00;99.90
10296;DHT22;5193;51.032;6.356;2022-07-22T03:54:42;16.00;99.90
10296;DHT22;5193;51.032;6.356;2022-07-22T03:57:08;16.10;99.90
10296;DHT22;5193;51.032;6.356;2022-07-22T03:59:34;16.00;99.90
10296;DHT22;5193;51.032;6.356;2022-07-22T04:02:00;16.00;99.90
10296;DHT22;5193;51.032;6.356;2022-07-22T04:04:26;16.00;99.90
10296;DHT22;5193;51.032;6.356;2022-07-22T04:06:51;16.00;99.90
10296;DHT22;5193;51.032;6.356;2022-07-22T04:09:18;16.00;99.90
10296;DHT22;5193;51.032;6.356;2022-07-22T04:11:43;16.00;99.90
10296;DHT22;5193;51.032;6.356;2022-07-22T04:14:09;16.00;99.90
10296;DHT22;5193;51.032;6.356;2022-07-22T04:16:35;16.00;99.90
10296;DHT22;5193;51.032;6.356;2022-07-22T04:19:02;16.00;99.90
10296;DHT22;5193;51.032;6.356;2022-07-22T04:21:27;16.10;99.90
10296;DHT22;5193;51.032;6.356;2022-07-22T04:23:53;16.10;99.90
10296;DHT22;5193;51.032;6.356;2022-07-22T04:26:19;16.00;99.90
10296;DHT22;5193;51.032;6.356;2022-07-22T04:28:45;16.00;99.90
10296;DHT22;5193;51.032;6.356;2022-07-22T04:31:10;16.00;99.90
10296;DHT22;5193;51.032;6.356;2022-07-22T04:33:37;16.00;99.90
10296;DHT22;5193;51.032;6.356;2022-07-22T04:36:03;16.00;99.90
10296;DHT22;5193;51.032;6.356;2022-07-22T04:38:28;16.00;99.90
10296;DHT22;5193;51.032;6.356;2022-07-22T04:40:54;16.00;99.90
10296;DHT22;5193;51.032;6.356;2022-07-22T04:43:20;16.00;99.90
10296;DHT22;5193;51.032;6.356;2022-07-22T04:45:46;16.00;99.90
10296;DHT22;5193;51.032;6.356;2022-07-22T04:48:11;16.00;99.90
10296;DHT22;5193;51.032;6.356;2022-07-22T04:50:37;16.00;99.90
10296;DHT22;5193;51.032;6.356;2022-07-22T04:53:03;16.00;99.90
10296;DHT22;5193;51.032;6.356;2022-07-22T04:55:30;16.10;99.90
10296;DHT22;5193;51.032;6.356;2022-07-22T04:57:55;16.10;99.90
10296;DHT22;5193;51.032;6.356;2022-07-22T05:00:21;16.00;99.90
10296;DHT22;5193;51.032;6.356;2022-07-22T05:02:47;16.10;99.90
10296;DHT22;5193;51.032;6.356;2022-07-22T05:05:12;16.10;99.90
10296;DHT22;5193;51.032;6.356;2022-07-22T05:07:38;16.10;99.90
10296;DHT22;5193;51.032;6.356;2022-07-22T05:10:04;16.10;99.90
10296;DHT22;5193;51.032;6.356;2022-07-22T05:12:30;16.20;99.90
10296;DHT22;5193;51.032;6.356;2022-07-22T05:14:56;16.20;99.90
10296;DHT22;5193;51.032;6.356;2022-07-22T05:17:21;16.10;99.90
10296;DHT22;5193;51.032;6.356;2022-07-22T05:19:47;16.10;99.90
10296;DHT22;5193;51.032;6.356;2022-07-22T05:22:12;16.10;99.90
10296;DHT22;5193;51.032;6.356;2022-07-22T05:24:38;16.10;99.90
10296;DHT22;5193;51.032;6.356;2022-07-22T05:27:04;16.20;99.90
10296;DHT22;5193;51.032;6.356;2022-07-22T05:29:29;16.20;99.90
10296;DHT22;5193;51.032;6.356;2022-07-22T05:31:55;16.20;99.90
10296;DHT22;5193;51.032;6.356;2022-07-22T05:34:21;16.20;99.90
10296;DHT22;5193;51.032;6.356;2022-07-22T05:36:46;16.20;99.90
10296;DHT22;5193;51.032;6.356;2022-07-22T05:39:12;16.20;99.90
10296;DHT22;5193;51.032;6.356;2022-07-22T05:41:37;16.20;99.90
10296;DHT22;5193;51.032;6.356;2022-07-22T05:44:04;16.20;99.90
10296;DHT22;5193;51.032;6.356;2022-07-22T05:46:29;16.20;99.90
10296;DHT22;5193;51.032;6.356;2022-07-22T05:48:55;16.20;99.90
10296;DHT22;5193;51.032;6.356;2022-07-22T05:51:21;16.20;99.90
10296;DHT22;5193;51.032;6.356;2022-07-22T05:53:47;16.20;99.90
10296;DHT22;5193;51.032;6.356;2022-07-22T05:56:12;16.20;99.90
10296;DHT22;5193;51.032;6.356;2022-07-22T05:58:39;16.20;99.90
10296;DHT22;5193;51.032;6.356;2022-07-22T06:01:05;16.20;99.90
10296;DHT22;5193;51.032;6.356;2022-07-22T06:03:31;16.20;99.90
10296;DHT22;5193;51.032;6.356;2022-07-22T06:05:56;16.20;99.90
10296;DHT22;5193;51.032;6.356;2022-07-22T06:08:22;16.20;99.90
10296;DHT22;5193;51.032;6.356;2022-07-22T06:10:48;16.30;99.90
10296;DHT22;5193;51.032;6.356;2022-07-22T06:13:14;16.30;99.90
10296;DHT22;5193;51.032;6.356;2022-07-22T06:15:40;16.30;99.90
10296;DHT22;5193;51.032;6.356;2022-07-22T06:18:06;16.20;99.90
10296;DHT22;5193;51.032;6.356;2022-07-22T06:20:31;16.20;99.90
10296;DHT22;5193;51.032;6.356;2022-07-22T06:22:57;16.10;99.90
10296;DHT22;5193;51.032;6.356;2022-07-22T06:25:22;16.00;99.90
10296;DHT22;5193;51.032;6.356;2022-07-22T06:27:48;15.90;99.90
10296;DHT22;5193;51.032;6.356;2022-07-22T06:30:14;15.90;99.90
10296;DHT22;5193;51.032;6.356;2022-07-22T06:32:39;15.80;99.90
10296;DHT22;5193;51.032;6.356;2022-07-22T06:35:05;15.80;99.90
10296;DHT22;5193;51.032;6.356;2022-07-22T06:37:31;15.80;99.90
10296;DHT22;5193;51.032;6.356;2022-07-22T06:39:56;15.80;99.90
10296;DHT22;5193;51.032;6.356;2022-07-22T06:42:22;15.80;99.90
10296;DHT22;5193;51.032;6.356;2022-07-22T06:44:48;15.80;99.90
10296;DHT22;5193;51.032;6.356;2022-07-22T06:47:14;15.80;99.90
10296;DHT22;5193;51.032;6.356;2022-07-22T06:49:40;15.80;99.90
10296;DHT22;5193;51.032;6.356;2022-07-22T06:52:05;15.90;99.90
10296;DHT22;5193;51.032;6.356;2022-07-22T06:54:32;15.80;99.90
10296;DHT22;5193;51.032;6.356;2022-07-22T06:56:57;15.80;99.90
10296;DHT22;5193;51.032;6.356;2022-07-22T06:59:23;15.90;99.90
10296;DHT22;5193;51.032;6.356;2022-07-22T07:01:49;15.90;99.90
10296;DHT22;5193;51.032;6.356;2022-07-22T07:04:15;16.00;99.90
10296;DHT22;5193;51.032;6.356;2022-07-22T07:06:43;16.00;99.90
10296;DHT22;5193;51.032;6.356;2022-07-22T07:09:09;16.00;99.90
10296;DHT22;5193;51.032;6.356;2022-07-22T07:11:35;16.10;99.90
10296;DHT22;5193;51.032;6.356;2022-07-22T07:14:00;16.10;99.90
10296;DHT22;5193;51.032;6.356;2022-07-22T07:16:26;16.20;99.90
10296;DHT22;5193;51.032;6.356;2022-07-22T07:18:51;16.20;99.90
10296;DHT22;5193;51.032;6.356;2022-07-22T07:21:17;16.20;99.90
10296;DHT22;5193;51.032;6.356;2022-07-22T07:23:43;16.30;99.90
10296;DHT22;5193;51.032;6.356;2022-07-22T07:26:08;16.30;99.90
10296;DHT22;5193;51.032;6.356;2022-07-22T07:28:34;16.40;99.90
10296;DHT22;5193;51.032;6.356;2022-07-22T07:31:00;16.40;99.90
10296;DHT22;5193;51.032;6.356;2022-07-22T07:33:26;16.40;99.90
10296;DHT22;5193;51.032;6.356;2022-07-22T07:35:52;16.40;99.90
10296;DHT22;5193;51.032;6.356;2022-07-22T07:38:18;16.50;99.90
10296;DHT22;5193;51.032;6.356;2022-07-22T07:40:43;16.50;99.90
10296;DHT22;5193;51.032;6.356;2022-07-22T07:43:09;16.60;99.90
10296;DHT22;5193;51.032;6.356;2022-07-22T07:45:36;16.70;99.90
10296;DHT22;5193;51.032;6.356;2022-07-22T07:48:02;16.80;99.90
10296;DHT22;5193;51.032;6.356;2022-07-22T07:50:28;16.90;99.90
10296;DHT22;5193;51.032;6.356;2022-07-22T07:52:54;17.00;99.90
10296;DHT22;5193;51.032;6.356;2022-07-22T07:55:21;17.10;99.90
10296;DHT22;5193;51.032;6.356;2022-07-22T07:57:48;17.20;99.90
10296;DHT22;5193;51.032;6.356;2022-07-22T08:00:15;17.30;99.90
10296;DHT22;5193;51.032;6.356;2022-07-22T08:02:41;17.40;99.90
10296;DHT22;5193;51.032;6.356;2022-07-22T08:05:08;17.50;99.90
10296;DHT22;5193;51.032;6.356;2022-07-22T08:07:34;17.50;99.90
10296;DHT22;5193;51.032;6.356;2022-07-22T08:09:59;17.60;99.90
10296;DHT22;5193;51.032;6.356;2022-07-22T08:12:25;17.80;99.90
10296;DHT22;5193;51.032;6.356;2022-07-22T08:14:50;18.00;99.90
10296;DHT22;5193;51.032;6.356;2022-07-22T08:17:16;18.10;99.90
10296;DHT22;5193;51.032;6.356;2022-07-22T08:19:42;18.10;99.90
10296;DHT22;5193;51.032;6.356;2022-07-22T08:22:07;18.30;99.90
10296;DHT22;5193;51.032;6.356;2022-07-22T08:24:33;18.30;99.90
10296;DHT22;5193;51.032;6.356;2022-07-22T08:26:58;18.40;99.90
10296;DHT22;5193;51.032;6.356;2022-07-22T08:29:24;18.50;99.90
10296;DHT22;5193;51.032;6.356;2022-07-22T08:31:50;18.70;99.90
10296;DHT22;5193;51.032;6.356;2022-07-22T08:34:15;18.80;99.90
10296;DHT22;5193;51.032;6.356;2022-07-22T08:36:41;18.80;99.90
10296;DHT22;5193;51.032;6.356;2022-07-22T08:39:06;18.90;99.90
10296;DHT22;5193;51.032;6.356;2022-07-22T08:41:36;18.90;99.90
10296;DHT22;5193;51.032;6.356;2022-07-22T08:44:08;18.90;99.90
10296;DHT22;5193;51.032;6.356;2022-07-22T08:46:34;19.00;99.90
10296;DHT22;5193;51.032;6.356;2022-07-22T08:49:00;19.10;99.90
10296;DHT22;5193;51.032;6.356;2022-07-22T08:51:27;19.30;99.90
10296;DHT22;5193;51.032;6.356;2022-07-22T08:53:53;19.40;99.90
10296;DHT22;5193;51.032;6.356;2022-07-22T08:56:19;19.40;99.90
10296;DHT22;5193;51.032;6.356;2022-07-22T08:58:44;19.30;99.90
10296;DHT22;5193;51.032;6.356;2022-07-22T09:01:12;19.40;99.90
10296;DHT22;5193;51.032;6.356;2022-07-22T09:03:47;19.60;99.90
10296;DHT22;5193;51.032;6.356;2022-07-22T09:06:15;19.80;99.90
10296;DHT22;5193;51.032;6.356;2022-07-22T09:08:55;20.00;99.90
10296;DHT22;5193;51.032;6.356;2022-07-22T09:11:23;20.10;99.90
10296;DHT22;5193;51.032;6.356;2022-07-22T09:13:49;20.00;99.90
10296;DHT22;5193;51.032;6.356;2022-07-22T09:16:15;20.10;99.90
10296;DHT22;5193;51.032;6.356;2022-07-22T09:18:52;20.20;99.90
10296;DHT22;5193;51.032;6.356;2022-07-22T09:21:17;20.20;99.90
10296;DHT22;5193;51.032;6.356;2022-07-22T09:23:43;20.20;99.90
10296;DHT22;5193;51.032;6.356;2022-07-22T09:26:33;20.20;99.90
10296;DHT22;5193;51.032;6.356;2022-07-22T09:28:59;20.20;99.90
10296;DHT22;5193;51.032;6.356;2022-07-22T09:31:33;20.40;99.90
10296;DHT22;5193;51.032;6.356;2022-07-22T09:34:00;20.60;99.90
10296;DHT22;5193;51.032;6.356;2022-07-22T09:36:26;20.90;99.90
10296;DHT22;5193;51.032;6.356;2022-07-22T09:38:52;21.00;99.90
10296;DHT22;5193;51.032;6.356;2022-07-22T09:41:18;21.10;99.90
10296;DHT22;5193;51.032;6.356;2022-07-22T09:43:43;21.20;99.90
10296;DHT22;5193;51.032;6.356;2022-07-22T09:46:09;21.50;99.90
10296;DHT22;5193;51.032;6.356;2022-07-22T09:48:36;21.70;99.90
10296;DHT22;5193;51.032;6.356;2022-07-22T09:51:03;22.10;99.90
10296;DHT22;5193;51.032;6.356;2022-07-22T09:53:30;22.20;99.90
10296;DHT22;5193;51.032;6.356;2022-07-22T09:56:00;22.30;99.90
10296;DHT22;5193;51.032;6.356;2022-07-22T09:58:27;22.30;99.90
10296;DHT22;5193;51.032;6.356;2022-07-22T10:00:54;22.30;99.90
10296;DHT22;5193;51.032;6.356;2022-07-22T10:03:29;22.40;99.90
10296;DHT22;5193;51.032;6.356;2022-07-22T10:05:56;22.50;99.90
10296;DHT22;5193;51.032;6.356;2022-07-22T10:08:25;22.60;99.90
10296;DHT22;5193;51.032;6.356;2022-07-22T10:10:53;22.70;99.90
10296;DHT22;5193;51.032;6.356;2022-07-22T10:13:19;22.80;99.90
10296;DHT22;5193;51.032;6.356;2022-07-22T10:15:46;22.90;99.90
10296;DHT22;5193;51.032;6.356;2022-07-22T10:18:16;22.80;99.90
10296;DHT22;5193;51.032;6.356;2022-07-22T10:20:43;22.80;99.90
10296;DHT22;5193;51.032;6.356;2022-07-22T10:23:11;22.70;99.90
10296;DHT22;5193;51.032;6.356;2022-07-22T10:25:57;22.60;99.90
10296;DHT22;5193;51.032;6.356;2022-07-22T10:28:35;22.60;99.90
10296;DHT22;5193;51.032;6.356;2022-07-22T10:31:16;22.40;99.90
10296;DHT22;5193;51.032;6.356;2022-07-22T10:33:44;22.30;99.90
10296;DHT22;5193;51.032;6.356;2022-07-22T10:36:09;22.30;99.90
10296;DHT22;5193;51.032;6.356;2022-07-22T10:38:35;22.20;99.90
10296;DHT22;5193;51.032;6.356;2022-07-22T10:41:03;22.20;99.90
10296;DHT22;5193;51.032;6.356;2022-07-22T10:43:55;22.40;99.90
10296;DHT22;5193;51.032;6.356;2022-07-22T10:46:51;22.70;99.90
10296;DHT22;5193;51.032;6.356;2022-07-22T10:49:19;22.80;99.90
10296;DHT22;5193;51.032;6.356;2022-07-22T10:54:33;22.80;99.90
10296;DHT22;5193;51.032;6.356;2022-07-22T10:57:00;22.80;99.90
10296;DHT22;5193;51.032;6.356;2022-07-22T10:59:26;22.90;99.90
10296;DHT22;5193;51.032;6.356;2022-07-22T11:01:52;22.90;99.90
10296;DHT22;5193;51.032;6.356;2022-07-22T11:04:24;22.70;99.90
10296;DHT22;5193;51.032;6.356;2022-07-22T11:06:54;22.40;99.90
10296;DHT22;5193;51.032;6.356;2022-07-22T11:09:23;22.30;99.90
10296;DHT22;5193;51.032;6.356;2022-07-22T11:11:49;22.20;99.90
10296;DHT22;5193;51.032;6.356;2022-07-22T11:14:34;22.20;99.90
10296;DHT22;5193;51.032;6.356;2022-07-22T11:17:11;22.20;99.90
10296;DHT22;5193;51.032;6.356;2022-07-22T11:19:39;22.10;99.90
10296;DHT22;5193;51.032;6.356;2022-07-22T11:22:08;22.00;99.90
10296;DHT22;5193;51.032;6.356;2022-07-22T11:24:35;22.10;99.90
10296;DHT22;5193;51.032;6.356;2022-07-22T11:27:02;22.20;99.90
10296;DHT22;5193;51.032;6.356;2022-07-22T11:29:37;22.50;99.90
10296;DHT22;5193;51.032;6.356;2022-07-22T11:32:09;22.80;99.90
10296;DHT22;5193;51.032;6.356;2022-07-22T11:34:37;23.20;99.90
10296;DHT22;5193;51.032;6.356;2022-07-22T11:37:03;23.50;99.90
10296;DHT22;5193;51.032;6.356;2022-07-22T11:39:29;23.80;99.90
10296;DHT22;5193;51.032;6.356;2022-07-22T11:41:57;23.70;99.90
10296;DHT22;5193;51.032;6.356;2022-07-22T11:44:25;23.70;99.90
10296;DHT22;5193;51.032;6.356;2022-07-22T11:46:51;23.80;99.90
10296;DHT22;5193;51.032;6.356;2022-07-22T11:49:21;23.90;99.90
10296;DHT22;5193;51.032;6.356;2022-07-22T11:51:47;23.90;99.90
10296;DHT22;5193;51.032;6.356;2022-07-22T11:54:13;23.80;99.90
10296;DHT22;5193;51.032;6.356;2022-07-22T11:56:39;23.80;99.90
10296;DHT22;5193;51.032;6.356;2022-07-22T11:59:06;23.90;99.90
10296;DHT22;5193;51.032;6.356;2022-07-22T12:01:34;24.10;99.90
10296;DHT22;5193;51.032;6.356;2022-07-22T12:04:16;24.40;99.90
10296;DHT22;5193;51.032;6.356;2022-07-22T12:06:43;24.40;99.90
10296;DHT22;5193;51.032;6.356;2022-07-22T12:09:35;24.40;99.90
10296;DHT22;5193;51.032;6.356;2022-07-22T12:12:02;24.20;99.90
10296;DHT22;5193;51.032;6.356;2022-07-22T12:14:30;24.10;99.90
10296;DHT22;5193;51.032;6.356;2022-07-22T12:17:02;24.20;99.90
10296;DHT22;5193;51.032;6.356;2022-07-22T12:19:29;24.30;99.90
10296;DHT22;5193;51.032;6.356;2022-07-22T12:22:06;24.50;99.90
10296;DHT22;5193;51.032;6.356;2022-07-22T12:24:37;24.70;99.90
10296;DHT22;5193;51.032;6.356;2022-07-22T12:27:07;24.50;99.90
10296;DHT22;5193;51.032;6.356;2022-07-22T12:35:00;24.20;99.90
10296;DHT22;5193;51.032;6.356;2022-07-22T12:37:31;24.40;99.90
10296;DHT22;5193;51.032;6.356;2022-07-22T12:40:06;24.60;99.90
10296;DHT22;5193;51.032;6.356;2022-07-22T12:42:38;24.60;99.90
10296;DHT22;5193;51.032;6.356;2022-07-22T12:50:22;24.60;99.90
10296;DHT22;5193;51.032;6.356;2022-07-22T12:52:50;24.40;99.90
10296;DHT22;5193;51.032;6.356;2022-07-22T12:55:16;24.30;99.90
10296;DHT22;5193;51.032;6.356;2022-07-22T12:57:42;24.50;99.90
10296;DHT22;5193;51.032;6.356;2022-07-22T13:00:08;24.60;99.90
10296;DHT22;5193;51.032;6.356;2022-07-22T13:02:35;24.60;99.90
10296;DHT22;5193;51.032;6.356;2022-07-22T13:05:00;24.80;99.90
10296;DHT22;5193;51.032;6.356;2022-07-22T13:07:26;24.70;99.90
10296;DHT22;5193;51.032;6.356;2022-07-22T13:09:51;24.60;99.90
10296;DHT22;5193;51.032;6.356;2022-07-22T13:12:18;24.80;99.90
10296;DHT22;5193;51.032;6.356;2022-07-22T13:14:44;24.90;99.90
10296;DHT22;5193;51.032;6.356;2022-07-22T13:17:09;25.10;99.90
10296;DHT22;5193;51.032;6.356;2022-07-22T13:19:36;25.30;99.90
10296;DHT22;5193;51.032;6.356;2022-07-22T13:22:02;25.50;99.90
10296;DHT22;5193;51.032;6.356;2022-07-22T13:24:27;25.50;99.90
10296;DHT22;5193;51.032;6.356;2022-07-22T13:26:53;25.40;99.90
10296;DHT22;5193;51.032;6.356;2022-07-22T13:29:19;25.40;99.90
10296;DHT22;5193;51.032;6.356;2022-07-22T13:31:44;25.20;99.90
10296;DHT22;5193;51.032;6.356;2022-07-22T13:34:10;24.90;99.90
10296;DHT22;5193;51.032;6.356;2022-07-22T13:36:36;24.90;99.90
10296;DHT22;5193;51.032;6.356;2022-07-22T13:39:01;24.90;99.90
10296;DHT22;5193;51.032;6.356;2022-07-22T13:41:28;24.90;99.90
10296;DHT22;5193;51.032;6.356;2022-07-22T13:43:53;24.90;99.90
10296;DHT22;5193;51.032;6.356;2022-07-22T13:46:19;25.10;99.90
10296;DHT22;5193;51.032;6.356;2022-07-22T13:48:45;25.00;99.90
10296;DHT22;5193;51.032;6.356;2022-07-22T13:51:11;24.90;99.90
10296;DHT22;5193;51.032;6.356;2022-07-22T13:53:37;24.80;99.90
10296;DHT22;5193;51.032;6.356;2022-07-22T13:56:03;24.80;99.90
10296;DHT22;5193;51.032;6.356;2022-07-22T13:58:29;25.00;99.90
10296;DHT22;5193;51.032;6.356;2022-07-22T14:00:55;25.20;99.90
10296;DHT22;5193;51.032;6.356;2022-07-22T14:03:21;25.30;99.90
10296;DHT22;5193;51.032;6.356;2022-07-22T14:05:46;25.40;99.90
10296;DHT22;5193;51.032;6.356;2022-07-22T14:08:12;25.50;99.90
10296;DHT22;5193;51.032;6.356;2022-07-22T14:10:38;25.60;99.90
10296;DHT22;5193;51.032;6.356;2022-07-22T14:13:03;25.70;99.90
10296;DHT22;5193;51.032;6.356;2022-07-22T14:15:32;25.90;99.90
10296;DHT22;5193;51.032;6.356;2022-07-22T14:17:58;26.10;99.90
10296;DHT22;5193;51.032;6.356;2022-07-22T14:20:23;26.00;99.90
10296;DHT22;5193;51.032;6.356;2022-07-22T14:22:49;26.00;99.90
10296;DHT22;5193;51.032;6.356;2022-07-22T14:25:14;26.10;99.90
10296;DHT22;5193;51.032;6.356;2022-07-22T14:27:40;26.10;99.90
10296;DHT22;5193;51.032;6.356;2022-07-22T14:30:06;26.20;99.90
10296;DHT22;5193;51.032;6.356;2022-07-22T14:32:32;26.10;99.90
10296;DHT22;5193;51.032;6.356;2022-07-22T14:34:57;26.00;99.90
10296;DHT22;5193;51.032;6.356;2022-07-22T14:37:23;26.00;99.90
10296;DHT22;5193;51.032;6.356;2022-07-22T14:39:49;26.00;99.90
10296;DHT22;5193;51.032;6.356;2022-07-22T14:42:14;26.00;99.90
10296;DHT22;5193;51.032;6.356;2022-07-22T14:44:40;25.90;99.90
10296;DHT22;5193;51.032;6.356;2022-07-22T14:47:05;26.00;99.90
10296;DHT22;5193;51.032;6.356;2022-07-22T14:49:31;26.10;99.90
10296;DHT22;5193;51.032;6.356;2022-07-22T14:51:56;26.20;99.90
10296;DHT22;5193;51.032;6.356;2022-07-22T14:54:22;26.10;99.90
10296;DHT22;5193;51.032;6.356;2022-07-22T14:56:48;26.00;99.90
10296;DHT22;5193;51.032;6.356;2022-07-22T14:59:13;26.00;99.90
10296;DHT22;5193;51.032;6.356;2022-07-22T15:01:39;26.10;99.90
10296;DHT22;5193;51.032;6.356;2022-07-22T15:04:05;26.20;99.90
10296;DHT22;5193;51.032;6.356;2022-07-22T15:06:30;26.30;99.90
10296;DHT22;5193;51.032;6.356;2022-07-22T15:08:56;26.20;99.90
10296;DHT22;5193;51.032;6.356;2022-07-22T15:11:22;26.00;99.90
10296;DHT22;5193;51.032;6.356;2022-07-22T15:13:47;25.80;99.90
10296;DHT22;5193;51.032;6.356;2022-07-22T15:16:13;25.60;99.90
10296;DHT22;5193;51.032;6.356;2022-07-22T15:18:38;25.40;99.90
10296;DHT22;5193;51.032;6.356;2022-07-22T15:21:04;25.30;99.90
10296;DHT22;5193;51.032;6.356;2022-07-22T15:23:30;25.30;99.90
10296;DHT22;5193;51.032;6.356;2022-07-22T15:26:00;25.30;99.90
10296;DHT22;5193;51.032;6.356;2022-07-22T15:28:26;25.30;99.90
10296;DHT22;5193;51.032;6.356;2022-07-22T15:30:52;25.50;99.90
10296;DHT22;5193;51.032;6.356;2022-07-22T15:33:18;25.80;99.90
10296;DHT22;5193;51.032;6.356;2022-07-22T15:35:45;25.90;99.90
10296;DHT22;5193;51.032;6.356;2022-07-22T15:38:11;25.90;99.90
10296;DHT22;5193;51.032;6.356;2022-07-22T15:40:37;25.80;99.90
10296;DHT22;5193;51.032;6.356;2022-07-22T15:43:04;25.70;99.90
10296;DHT22;5193;51.032;6.356;2022-07-22T15:45:30;25.80;99.90
10296;DHT22;5193;51.032;6.356;2022-07-22T15:47:56;25.90;99.90
10296;DHT22;5193;51.032;6.356;2022-07-22T15:50:21;25.90;99.90
10296;DHT22;5193;51.032;6.356;2022-07-22T15:52:48;25.90;99.90
10296;DHT22;5193;51.032;6.356;2022-07-22T15:55:17;25.80;99.90